createdAt,value
2017-08-15T00:01:58.163Z,32.17
2017-08-15T00:04:25.874Z,19.00
2017-08-15T00:06:54.105Z,14.15
2017-08-15T00:09:22.379Z,12.43
2017-08-15T00:11:50.549Z,9.85
2017-08-15T00:14:18.205Z,10.15
2017-08-15T00:16:46.128Z,9.23
2017-08-15T00:19:14.448Z,9.43
2017-08-15T00:21:42.010Z,9.68
2017-08-15T00:24:10.596Z,8.57
2017-08-15T00:26:38.091Z,8.10
2017-08-15T00:29:06.350Z,7.80
2017-08-15T00:31:33.917Z,7.68
2017-08-15T00:34:02.088Z,7.78
2017-08-15T00:36:31.324Z,8.10
2017-08-15T00:39:01.006Z,51.17
2017-08-15T00:41:29.258Z,40.30
2017-08-15T00:43:57.141Z,76.82
2017-08-15T00:46:25.892Z,59.78
2017-08-15T00:48:53.364Z,33.08
2017-08-15T00:51:21.884Z,32.35
2017-08-15T00:53:49.372Z,35.33
2017-08-15T00:56:16.861Z,26.03
2017-08-15T00:58:44.476Z,15.55
2017-08-15T01:01:11.981Z,12.43
2017-08-15T01:03:39.480Z,10.23
2017-08-15T01:06:07.855Z,9.52
2017-08-15T01:08:35.336Z,8.65
2017-08-15T01:11:02.993Z,9.00
2017-08-15T01:13:31.425Z,8.60
2017-08-15T01:15:59.230Z,8.77
2017-08-15T01:18:27.060Z,8.10
2017-08-15T01:20:55.785Z,8.25
2017-08-15T01:23:23.248Z,8.90
2017-08-15T01:25:50.709Z,8.80
2017-08-15T01:28:19.685Z,9.35
2017-08-15T01:30:47.404Z,10.60
2017-08-15T01:33:15.374Z,11.68
2017-08-15T01:35:42.816Z,13.07
2017-08-15T01:38:11.800Z,11.52
2017-08-15T01:40:40.363Z,9.80
2017-08-15T01:43:08.689Z,8.77
2017-08-15T01:45:36.672Z,9.50
2017-08-15T01:48:04.113Z,42.42
2017-08-15T01:50:32.716Z,17.00
2017-08-15T01:53:00.254Z,26.02
2017-08-15T01:55:29.886Z,29.08
2017-08-15T01:57:58.342Z,20.88
2017-08-15T02:00:25.865Z,13.37
2017-08-15T02:02:53.323Z,11.68
2017-08-15T02:05:22.129Z,8.90
2017-08-15T02:07:51.874Z,8.38
2017-08-15T02:10:20.132Z,8.20
2017-08-15T02:12:47.908Z,8.10
2017-08-15T02:15:16.468Z,8.00
2017-08-15T02:17:44.350Z,8.20
2017-08-15T02:20:12.027Z,7.07
2017-08-15T02:22:39.775Z,8.32
2017-08-15T02:25:07.961Z,7.37
2017-08-15T02:27:35.743Z,7.47
2017-08-15T02:30:03.207Z,7.65
2017-08-15T02:32:32.081Z,7.47
2017-08-15T02:35:00.537Z,7.78
2017-08-15T02:37:28.070Z,9.68
2017-08-15T02:39:56.365Z,9.02
2017-08-15T02:42:25.547Z,8.05
2017-08-15T02:44:53.311Z,7.55
2017-08-15T02:47:22.986Z,7.40
2017-08-15T02:49:50.668Z,7.30
2017-08-15T02:52:18.330Z,7.78
2017-08-15T02:54:46.929Z,7.40
2017-08-15T02:57:14.652Z,7.85
2017-08-15T02:59:43.722Z,7.00
2017-08-15T03:02:11.371Z,7.35
2017-08-15T03:04:38.894Z,6.60
2017-08-15T03:07:07.147Z,7.25
2017-08-15T03:09:35.349Z,7.63
2017-08-15T03:12:03.642Z,8.48
2017-08-15T03:14:31.128Z,8.98
2017-08-15T03:16:59.139Z,10.82
2017-08-15T03:19:28.245Z,10.07
2017-08-15T03:21:58.432Z,11.23
2017-08-15T03:24:26.289Z,11.27
2017-08-15T03:26:54.700Z,13.73
2017-08-15T03:29:24.360Z,12.65
2017-08-15T03:31:52.121Z,12.73
2017-08-15T03:34:19.994Z,12.57
2017-08-15T03:36:49.564Z,12.18
2017-08-15T03:39:17.080Z,12.00
2017-08-15T03:41:44.561Z,12.50
2017-08-15T03:44:12.312Z,11.53
2017-08-15T03:46:39.781Z,11.80
2017-08-15T03:49:07.236Z,12.70
2017-08-15T03:51:34.719Z,11.65
2017-08-15T03:54:02.965Z,13.18
2017-08-15T03:56:30.401Z,16.93
2017-08-15T03:58:58.852Z,14.50
2017-08-15T04:01:26.322Z,16.08
2017-08-15T04:03:53.776Z,15.77
2017-08-15T04:06:21.235Z,17.15
2017-08-15T04:08:48.705Z,16.90
2017-08-15T04:11:16.161Z,15.77
2017-08-15T04:13:43.660Z,14.75
2017-08-15T04:16:11.878Z,14.07
2017-08-15T04:18:39.328Z,13.23
2017-08-15T04:21:06.788Z,13.43
2017-08-15T04:23:34.244Z,11.90
2017-08-15T04:26:01.700Z,12.68
2017-08-15T04:28:29.156Z,11.32
2017-08-15T04:30:57.481Z,11.23
2017-08-15T04:33:25.705Z,10.63
2017-08-15T04:35:53.159Z,9.90
2017-08-15T04:38:20.624Z,8.95
2017-08-15T04:40:48.120Z,9.98
2017-08-15T04:43:16.344Z,8.57
2017-08-15T04:45:43.804Z,8.10
2017-08-15T04:48:11.721Z,8.30
2017-08-15T04:50:39.157Z,8.65
2017-08-15T04:53:06.597Z,8.70
2017-08-15T04:55:34.072Z,7.72
2017-08-15T04:58:01.528Z,7.40
2017-08-15T05:00:28.973Z,7.80
2017-08-15T05:02:56.447Z,7.82
2017-08-15T05:05:24.118Z,7.50
2017-08-15T05:07:52.337Z,7.82
2017-08-15T05:10:19.792Z,7.60
2017-08-15T05:12:47.253Z,7.32
2017-08-15T05:15:14.703Z,7.30
2017-08-15T05:17:42.170Z,7.90
2017-08-15T05:20:09.628Z,6.80
2017-08-15T05:22:37.124Z,7.20
2017-08-15T05:25:05.347Z,7.12
2017-08-15T05:27:32.807Z,7.82
2017-08-15T05:30:00.253Z,7.00
2017-08-15T05:32:27.733Z,6.97
2017-08-15T05:34:55.200Z,7.20
2017-08-15T05:37:22.670Z,7.27
2017-08-15T05:39:50.629Z,6.50
2017-08-15T05:42:18.131Z,7.30
2017-08-15T05:44:46.325Z,7.03
2017-08-15T05:47:13.792Z,7.05
2017-08-15T05:49:41.544Z,7.30
2017-08-15T05:52:09.073Z,7.25
2017-08-15T05:54:36.529Z,7.25
2017-08-15T05:57:04.263Z,7.43
2017-08-15T05:59:31.704Z,7.00
2017-08-15T06:01:59.169Z,7.55
2017-08-15T06:04:26.620Z,7.72
2017-08-15T06:06:54.115Z,6.80
2017-08-15T06:09:22.328Z,7.35
2017-08-15T06:11:49.785Z,7.18
2017-08-15T06:14:17.274Z,6.70
2017-08-15T06:16:44.741Z,6.90
2017-08-15T06:19:13.856Z,6.90
2017-08-15T06:21:41.301Z,7.05
2017-08-15T06:24:09.521Z,7.13
2017-08-15T06:26:36.968Z,7.10
2017-08-15T06:29:04.436Z,5.80
2017-08-15T06:31:31.925Z,6.18
2017-08-15T06:33:59.371Z,6.25
2017-08-15T06:36:26.824Z,6.47
2017-08-15T06:38:54.288Z,6.37
2017-08-15T06:41:21.736Z,6.47
2017-08-15T06:43:49.222Z,6.05
2017-08-15T06:46:17.425Z,5.55
2017-08-15T06:48:44.907Z,5.80
2017-08-15T06:51:12.356Z,5.90
2017-08-15T06:53:39.820Z,5.40
2017-08-15T06:56:07.272Z,5.90
2017-08-15T06:58:34.739Z,5.50
2017-08-15T07:01:02.181Z,5.90
2017-08-15T07:03:29.634Z,5.80
2017-08-15T07:05:57.320Z,6.03
2017-08-15T07:08:24.759Z,5.72
2017-08-15T07:10:52.209Z,6.00
2017-08-15T07:13:19.665Z,5.70
2017-08-15T07:15:47.104Z,5.75
2017-08-15T07:18:14.571Z,5.40
2017-08-15T07:20:42.033Z,5.68
2017-08-15T07:23:09.711Z,5.20
2017-08-15T07:25:37.151Z,5.60
2017-08-15T07:28:04.628Z,5.50
2017-08-15T07:30:32.099Z,5.60
2017-08-15T07:32:59.565Z,5.25
2017-08-15T07:35:27.779Z,5.80
2017-08-15T07:37:55.231Z,5.55
2017-08-15T07:40:22.741Z,5.40
2017-08-15T07:42:50.965Z,5.40
2017-08-15T07:45:18.420Z,5.43
2017-08-15T07:47:45.891Z,5.30
2017-08-15T07:50:13.342Z,5.60
2017-08-15T07:52:40.793Z,6.05
2017-08-15T07:55:08.261Z,5.00
2017-08-15T07:57:36.878Z,5.10
2017-08-15T08:00:04.330Z,5.33
2017-08-15T08:02:31.883Z,5.30
2017-08-15T08:04:59.318Z,5.00
2017-08-15T08:07:26.786Z,5.77
2017-08-15T08:09:54.240Z,5.22
2017-08-15T08:12:21.700Z,6.12
2017-08-15T08:14:49.578Z,5.40
2017-08-15T08:17:17.015Z,5.20
2017-08-15T08:19:44.496Z,5.07
2017-08-15T08:22:12.852Z,5.50
2017-08-15T08:24:40.312Z,4.90
2017-08-15T08:27:07.780Z,5.30
2017-08-15T08:29:36.007Z,4.90
2017-08-15T08:32:03.909Z,5.15
2017-08-15T08:34:31.390Z,5.10
2017-08-15T08:36:59.599Z,5.03
2017-08-15T08:39:27.058Z,5.10
2017-08-15T08:41:54.519Z,5.37
2017-08-15T08:44:21.978Z,5.32
2017-08-15T08:46:49.421Z,5.20
2017-08-15T08:49:17.142Z,5.40
2017-08-15T08:51:44.582Z,5.30
2017-08-15T08:54:12.052Z,5.22
2017-08-15T08:56:40.283Z,5.87
2017-08-15T08:59:07.780Z,5.47
2017-08-15T09:01:35.236Z,5.22
2017-08-15T09:04:03.484Z,5.60
2017-08-15T09:06:31.068Z,5.72
2017-08-15T09:08:58.520Z,5.57
2017-08-15T09:11:26.757Z,5.60
2017-08-15T09:13:54.219Z,5.80
2017-08-15T09:16:21.874Z,5.20
2017-08-15T09:18:49.391Z,5.80
2017-08-15T09:21:17.616Z,6.10
2017-08-15T09:23:45.523Z,7.20
2017-08-15T09:26:13.733Z,6.82
2017-08-15T09:28:56.113Z,7.15
2017-08-15T09:31:23.573Z,5.90
2017-08-15T09:33:51.493Z,6.70
2017-08-15T09:36:18.974Z,6.87
2017-08-15T09:38:47.214Z,7.12
2017-08-15T09:41:14.682Z,6.90
2017-08-15T09:43:42.165Z,7.10
2017-08-15T09:46:09.688Z,7.30
2017-08-15T09:48:37.134Z,6.78
2017-08-15T09:51:05.180Z,7.30
2017-08-15T09:53:32.629Z,6.65
2017-08-15T09:56:00.097Z,6.90
2017-08-15T09:58:33.243Z,7.10
2017-08-15T10:01:01.466Z,12.00
2017-08-15T10:03:29.200Z,12.60
2017-08-15T10:05:57.442Z,36.35
2017-08-15T10:08:24.892Z,43.17
2017-08-15T10:10:52.351Z,46.70
2017-08-15T10:13:19.821Z,37.22
2017-08-15T10:15:48.040Z,25.92
2017-08-15T10:18:15.661Z,20.23
2017-08-15T10:20:44.024Z,15.43
2017-08-15T10:23:11.482Z,10.85
2017-08-15T10:25:39.729Z,12.10
2017-08-15T10:28:07.175Z,9.63
2017-08-15T10:30:35.409Z,9.45
2017-08-15T10:33:02.862Z,7.75
2017-08-15T10:35:31.100Z,7.10
2017-08-15T10:37:58.830Z,6.80
2017-08-15T10:40:26.285Z,7.05
2017-08-15T10:42:53.745Z,7.28
2017-08-15T10:45:21.201Z,7.15
2017-08-15T10:47:48.672Z,6.87
2017-08-15T10:50:16.124Z,6.67
2017-08-15T10:52:43.599Z,6.82
2017-08-15T10:55:11.085Z,6.95
2017-08-15T10:57:39.349Z,6.17
2017-08-15T11:00:06.802Z,6.78
2017-08-15T11:02:35.036Z,6.90
2017-08-15T11:05:02.496Z,35.80
2017-08-15T11:07:30.029Z,51.37
2017-08-15T11:09:58.353Z,72.68
2017-08-15T11:12:26.018Z,66.30
2017-08-15T11:14:53.796Z,60.40
2017-08-15T11:17:22.030Z,61.53
2017-08-15T11:19:49.536Z,47.77
2017-08-15T11:22:17.761Z,38.55
2017-08-15T11:24:45.973Z,28.50
2017-08-15T11:27:14.213Z,21.12
2017-08-15T11:29:41.872Z,20.67
2017-08-15T11:32:09.344Z,16.77
2017-08-15T11:34:36.802Z,10.98
2017-08-15T11:37:04.309Z,10.10
2017-08-15T11:39:32.397Z,10.07
2017-08-15T11:41:59.849Z,10.40
2017-08-15T11:44:27.535Z,10.00
2017-08-15T11:46:55.041Z,7.73
2017-08-15T11:49:23.245Z,7.70
2017-08-15T11:51:50.698Z,6.80
2017-08-15T11:54:18.871Z,6.82
2017-08-15T11:56:46.353Z,6.30
2017-08-15T11:59:14.607Z,6.25
2017-08-15T12:01:42.119Z,6.60
2017-08-15T12:04:10.514Z,5.80
2017-08-15T12:06:38.154Z,6.00
2017-08-15T12:09:05.683Z,6.25
2017-08-15T12:11:33.132Z,5.75
2017-08-15T12:14:00.608Z,5.78
2017-08-15T12:16:28.181Z,5.93
2017-08-15T12:18:56.465Z,5.70
2017-08-15T12:21:25.302Z,5.40
2017-08-15T12:23:52.761Z,12.00
2017-08-15T12:26:20.232Z,59.80
2017-08-15T12:28:47.730Z,111.50
2017-08-15T12:31:15.438Z,99.90
2017-08-15T12:33:42.901Z,104.80
2017-08-15T12:36:10.431Z,79.03
2017-08-15T12:38:38.240Z,68.45
2017-08-15T12:41:05.958Z,51.33
2017-08-15T12:43:33.633Z,39.45
2017-08-15T12:46:01.115Z,35.00
2017-08-15T12:48:28.637Z,22.05
2017-08-15T12:50:56.093Z,21.08
2017-08-15T12:53:23.564Z,17.93
2017-08-15T12:55:51.045Z,16.87
2017-08-15T12:58:18.502Z,11.70
2017-08-15T13:00:45.969Z,11.60
2017-08-15T13:03:13.424Z,8.77
2017-08-15T13:05:41.648Z,7.57
2017-08-15T13:08:09.105Z,18.33
2017-08-15T13:10:36.570Z,38.38
2017-08-15T13:13:04.249Z,38.53
2017-08-15T13:15:31.732Z,47.47
2017-08-15T13:17:59.964Z,33.05
2017-08-15T13:20:27.450Z,23.80
2017-08-15T13:22:55.726Z,16.62
2017-08-15T13:25:23.183Z,13.93
2017-08-15T13:27:51.407Z,14.55
2017-08-15T13:30:19.123Z,10.70
2017-08-15T13:32:46.566Z,7.78
2017-08-15T13:35:14.016Z,7.62
2017-08-15T13:37:41.481Z,7.53
2017-08-15T13:40:26.845Z,7.35
2017-08-15T13:43:11.996Z,6.10
2017-08-15T13:45:39.486Z,5.65
2017-08-15T13:48:06.941Z,5.10
2017-08-15T13:50:34.413Z,5.20
2017-08-15T13:53:20.817Z,5.10
2017-08-15T13:58:15.631Z,3.33
2017-08-15T14:00:44.306Z,3.40
2017-08-15T14:03:13.176Z,3.70
2017-08-15T14:05:45.148Z,3.35
2017-08-15T14:08:15.006Z,3.43
2017-08-15T14:10:48.263Z,3.70
2017-08-15T14:13:19.709Z,3.42
2017-08-15T14:15:48.370Z,3.70
2017-08-15T14:18:18.108Z,4.00
2017-08-15T14:20:48.764Z,3.73
2017-08-15T14:23:16.836Z,4.07
2017-08-15T14:25:46.682Z,3.50
2017-08-15T14:28:15.548Z,3.95
2017-08-15T14:30:44.101Z,4.40
2017-08-15T14:33:13.817Z,4.47
2017-08-15T14:35:42.189Z,4.40
2017-08-15T14:38:11.901Z,5.00
2017-08-15T14:43:15.370Z,3.75
2017-08-15T14:45:45.901Z,5.00
2017-08-15T14:48:16.221Z,4.40
2017-08-15T14:50:45.109Z,4.10
2017-08-15T14:56:07.809Z,4.65
2017-08-15T14:58:35.362Z,4.60
2017-08-15T15:01:04.420Z,5.05
2017-08-15T15:03:32.674Z,6.37
2017-08-15T15:06:00.882Z,6.32
2017-08-15T15:08:31.464Z,6.12
2017-08-15T15:11:01.990Z,6.03
2017-08-15T15:13:32.865Z,5.57
2017-08-15T15:16:03.008Z,5.70
2017-08-15T15:18:32.211Z,4.97
2017-08-15T15:21:02.939Z,5.43
2017-08-15T15:23:33.421Z,5.28
2017-08-15T15:26:04.746Z,4.60
2017-08-15T15:28:37.190Z,4.80
2017-08-15T15:31:07.294Z,4.80
2017-08-15T15:33:37.936Z,4.43
2017-08-15T15:36:08.270Z,4.32
2017-08-15T15:38:37.290Z,4.13
2017-08-15T15:41:06.863Z,4.78
2017-08-15T15:43:36.947Z,5.10
2017-08-15T15:46:06.983Z,4.80
2017-08-15T15:48:35.184Z,5.00
2017-08-15T15:51:02.686Z,5.15
2017-08-15T15:53:33.749Z,5.35
2017-08-15T15:56:03.076Z,4.65
2017-08-15T15:58:33.366Z,4.90
2017-08-15T16:01:01.653Z,5.28
2017-08-15T16:03:31.573Z,4.90
2017-08-15T16:06:00.801Z,5.03
2017-08-15T16:08:34.581Z,6.40
2017-08-15T16:11:06.801Z,6.10
2017-08-15T16:13:35.423Z,5.95
2017-08-15T16:16:05.433Z,5.47
2017-08-15T16:18:33.925Z,5.70
2017-08-15T16:21:03.865Z,5.97
2017-08-15T16:23:34.229Z,5.40
2017-08-15T16:26:03.038Z,5.60
2017-08-15T16:28:31.324Z,5.65
2017-08-15T16:31:00.112Z,5.80
2017-08-15T16:33:31.576Z,6.30
2017-08-15T16:36:00.156Z,6.18
2017-08-15T16:38:30.456Z,6.20
2017-08-15T16:40:59.187Z,5.62
2017-08-15T16:43:29.838Z,5.80
2017-08-15T16:46:01.427Z,6.03
2017-08-15T16:48:32.037Z,6.30
2017-08-15T16:51:04.007Z,6.60
2017-08-15T16:53:32.191Z,6.95
2017-08-15T16:56:01.695Z,7.28
2017-08-15T16:58:31.396Z,9.55
2017-08-15T17:01:01.126Z,16.05
2017-08-15T17:03:28.698Z,10.57
2017-08-15T17:05:59.106Z,9.85
2017-08-15T17:08:28.741Z,9.93
2017-08-15T17:10:58.037Z,9.80
2017-08-15T17:13:28.965Z,8.43
2017-08-15T17:15:59.290Z,8.07
2017-08-15T17:18:27.724Z,7.30
2017-08-15T17:20:57.661Z,7.05
2017-08-15T17:23:26.093Z,7.10
2017-08-15T17:25:56.197Z,7.43
2017-08-15T17:28:24.733Z,9.18
2017-08-15T17:30:54.975Z,7.18
2017-08-15T17:33:23.822Z,7.15
2017-08-15T17:35:54.795Z,7.25
2017-08-15T17:38:24.536Z,7.30
2017-08-15T17:40:52.846Z,7.00
2017-08-15T17:43:23.228Z,6.90
2017-08-15T17:45:52.647Z,7.57
2017-08-15T17:48:22.112Z,7.12
2017-08-15T17:50:52.417Z,7.53
2017-08-15T17:53:23.273Z,7.85
2017-08-15T17:55:53.492Z,7.50
2017-08-15T17:58:22.156Z,7.25
2017-08-15T18:00:51.908Z,7.60
2017-08-15T18:03:19.478Z,9.70
2017-08-15T18:05:49.340Z,7.90
2017-08-15T18:08:21.596Z,8.18
2017-08-15T18:10:49.221Z,7.90
2017-08-15T18:13:16.831Z,7.57
2017-08-15T18:15:47.062Z,7.53
2017-08-15T18:18:14.741Z,7.62
2017-08-15T18:20:44.237Z,7.10
2017-08-15T18:23:14.553Z,7.65
2017-08-15T18:25:43.470Z,8.70
2017-08-15T18:28:12.689Z,8.82
2017-08-15T18:30:40.765Z,8.88
2017-08-15T18:33:10.037Z,13.98
2017-08-15T18:35:37.966Z,13.80
2017-08-15T18:38:06.538Z,14.63
2017-08-15T18:40:36.760Z,12.25
2017-08-15T18:43:05.199Z,20.75
2017-08-15T18:45:34.257Z,17.80
2017-08-15T18:48:02.546Z,17.98
2017-08-15T18:50:35.169Z,18.45
2017-08-15T18:53:06.326Z,18.37
2017-08-15T18:55:34.106Z,21.10
2017-08-15T18:58:03.334Z,20.15
2017-08-15T19:00:32.841Z,18.10
2017-08-15T19:03:02.129Z,20.20
2017-08-15T19:05:30.375Z,17.98
2017-08-15T19:08:02.683Z,18.50
2017-08-15T19:10:32.355Z,19.23
2017-08-15T19:13:00.945Z,18.80
2017-08-15T19:15:29.403Z,17.92
2017-08-15T19:17:58.826Z,15.43
2017-08-15T19:20:28.199Z,15.40
2017-08-15T19:22:55.654Z,10.27
2017-08-15T19:25:25.752Z,11.50
2017-08-15T19:27:57.364Z,10.50
2017-08-15T19:30:25.834Z,9.90
2017-08-15T19:32:53.986Z,8.77
2017-08-15T19:35:26.647Z,8.30
2017-08-15T19:37:55.786Z,6.93
2017-08-15T19:40:23.299Z,7.30
2017-08-15T19:42:52.615Z,9.88
2017-08-15T19:45:23.273Z,9.90
2017-08-15T19:47:54.592Z,8.70
2017-08-15T19:50:24.009Z,6.75
2017-08-15T19:52:53.917Z,8.80
2017-08-15T19:55:21.937Z,6.70
2017-08-15T19:57:51.934Z,6.70
2017-08-15T20:00:20.000Z,6.60
2017-08-15T20:02:48.902Z,9.13
2017-08-15T20:05:20.811Z,7.90
2017-08-15T20:07:50.755Z,9.30
2017-08-15T20:12:53.725Z,12.30
2017-08-15T20:15:26.607Z,12.85
2017-08-15T20:17:57.323Z,10.80
2017-08-15T20:20:28.187Z,10.00
2017-08-15T20:22:56.864Z,9.20
2017-08-15T20:25:29.586Z,8.73
2017-08-15T20:27:59.944Z,9.45
2017-08-15T20:30:28.557Z,7.62
2017-08-15T20:32:57.856Z,8.02
2017-08-15T20:35:27.415Z,8.32
2017-08-15T20:37:55.718Z,7.45
2017-08-15T20:40:26.007Z,7.90
2017-08-15T20:42:54.263Z,11.25
2017-08-15T20:45:23.584Z,7.80
2017-08-15T20:47:52.533Z,9.10
2017-08-15T20:50:23.319Z,9.68
2017-08-15T20:52:52.666Z,8.37
2017-08-15T20:55:20.962Z,8.88
2017-08-15T20:57:52.165Z,8.68
2017-08-15T21:00:26.600Z,9.50
2017-08-15T21:02:56.707Z,8.60
2017-08-15T21:05:26.417Z,8.93
2017-08-15T21:07:55.870Z,28.23
2017-08-15T21:10:23.788Z,9.77
2017-08-15T21:12:53.718Z,9.25
2017-08-15T21:15:22.008Z,9.32
2017-08-15T21:17:50.460Z,9.25
2017-08-15T21:20:17.983Z,10.90
2017-08-15T21:22:46.298Z,10.02
2017-08-15T21:25:15.103Z,10.68
2017-08-15T21:27:43.140Z,11.00
2017-08-15T21:30:14.028Z,10.60
2017-08-15T21:32:43.674Z,13.60
2017-08-15T21:35:14.628Z,12.82
2017-08-15T21:37:44.550Z,32.80
2017-08-15T21:40:15.573Z,23.23
2017-08-15T21:42:45.819Z,24.37
2017-08-15T21:45:13.945Z,25.10
2017-08-15T21:47:43.506Z,29.85
2017-08-15T21:50:14.438Z,28.92
2017-08-15T21:52:43.612Z,30.58
2017-08-15T21:55:12.224Z,28.08
2017-08-15T21:57:42.236Z,25.05
2017-08-15T22:00:12.327Z,23.67
2017-08-15T22:02:41.107Z,22.13
2017-08-15T22:05:11.433Z,25.02
2017-08-15T22:07:40.017Z,23.60
2017-08-15T22:10:11.705Z,21.83
2017-08-15T22:12:42.831Z,21.05
2017-08-15T22:15:14.012Z,19.17
2017-08-15T22:17:44.938Z,19.52
2017-08-15T22:20:13.486Z,17.92
2017-08-15T22:22:43.187Z,18.10
2017-08-15T22:25:12.689Z,17.90
2017-08-15T22:27:41.165Z,18.37
2017-08-15T22:30:11.079Z,20.02
2017-08-15T22:32:40.793Z,19.70
2017-08-15T22:35:11.993Z,20.47
2017-08-15T22:37:43.073Z,20.33
2017-08-15T22:40:12.737Z,20.73
2017-08-15T22:42:41.975Z,21.62
2017-08-15T22:45:11.293Z,23.50
2017-08-15T22:47:39.824Z,24.83
2017-08-15T22:50:11.100Z,24.35
2017-08-15T22:52:39.745Z,25.65
2017-08-15T22:55:09.408Z,27.60
2017-08-15T22:57:40.454Z,30.70
2017-08-15T23:00:10.344Z,31.65
2017-08-15T23:02:39.568Z,30.83
2017-08-15T23:05:09.462Z,32.10
2017-08-15T23:07:39.726Z,31.83
2017-08-15T23:10:09.596Z,32.58
2017-08-15T23:12:38.992Z,32.25
2017-08-15T23:15:07.069Z,32.20
2017-08-15T23:17:37.378Z,32.20
2017-08-15T23:20:06.175Z,33.65
2017-08-15T23:22:35.473Z,32.47
2017-08-15T23:25:05.180Z,32.72
2017-08-15T23:27:35.810Z,29.90
2017-08-15T23:30:03.998Z,30.12
2017-08-15T23:32:33.885Z,29.35
2017-08-15T23:35:05.343Z,28.55
2017-08-15T23:37:35.365Z,27.83
2017-08-15T23:40:04.045Z,26.37
2017-08-15T23:42:33.680Z,22.70
2017-08-15T23:45:02.334Z,22.73
2017-08-15T23:47:32.448Z,24.98
2017-08-15T23:50:04.137Z,21.50
2017-08-15T23:52:32.094Z,24.08
2017-08-15T23:55:01.168Z,20.30
2017-08-15T23:57:28.740Z,20.35
2017-08-15T23:59:57.250Z,16.98
